sensor_id;sensor_type;location;lat;lon;timestamp;P1;durP1;ratioP1;P2;durP2;ratioP2
25637;SDS011;13496;51.040;13.680;2023-09-30T00:00:21;6.65;;;4.97;;
25637;SDS011;13496;51.040;13.680;2023-09-30T00:05:23;6.65;;;4.63;;
25637;SDS011;13496;51.040;13.680;2023-09-30T00:10:25;6.65;;;5.00;;
25637;SDS011;13496;51.040;13.680;2023-09-30T00:15:27;5.78;;;4.88;;
25637;SDS011;13496;51.040;13.680;2023-09-30T00:20:28;6.53;;;4.93;;
25637;SDS011;13496;51.040;13.680;2023-09-30T00:25:30;6.70;;;5.00;;
25637;SDS011;13496;51.040;13.680;2023-09-30T00:30:32;5.78;;;4.43;;
25637;SDS011;13496;51.040;13.680;2023-09-30T00:35:33;3.67;;;2.90;;
25637;SDS011;13496;51.040;13.680;2023-09-30T00:40:35;4.35;;;3.17;;
25637;SDS011;13496;51.040;13.680;2023-09-30T00:45:38;4.82;;;3.30;;
25637;SDS011;13496;51.040;13.680;2023-09-30T00:50:39;4.43;;;3.60;;
25637;SDS011;13496;51.040;13.680;2023-09-30T00:55:42;4.13;;;3.10;;
25637;SDS011;13496;51.040;13.680;2023-09-30T01:00:44;4.18;;;3.20;;
25637;SDS011;13496;51.040;13.680;2023-09-30T01:05:45;3.90;;;2.95;;
25637;SDS011;13496;51.040;13.680;2023-09-30T01:10:50;2.78;;;2.50;;
25637;SDS011;13496;51.040;13.680;2023-09-30T01:15:52;3.53;;;2.58;;
25637;SDS011;13496;51.040;13.680;2023-09-30T01:20:54;3.45;;;2.70;;
25637;SDS011;13496;51.040;13.680;2023-09-30T01:25:57;3.63;;;2.20;;
25637;SDS011;13496;51.040;13.680;2023-09-30T01:31:00;3.70;;;2.58;;
25637;SDS011;13496;51.040;13.680;2023-09-30T01:36:02;2.67;;;2.38;;
25637;SDS011;13496;51.040;13.680;2023-09-30T01:41:04;2.40;;;2.15;;
25637;SDS011;13496;51.040;13.680;2023-09-30T01:46:06;2.42;;;2.00;;
25637;SDS011;13496;51.040;13.680;2023-09-30T01:51:07;2.85;;;2.40;;
25637;SDS011;13496;51.040;13.680;2023-09-30T01:56:09;3.38;;;2.17;;
25637;SDS011;13496;51.040;13.680;2023-09-30T02:01:11;2.42;;;1.65;;
25637;SDS011;13496;51.040;13.680;2023-09-30T02:06:12;3.08;;;2.47;;
25637;SDS011;13496;51.040;13.680;2023-09-30T02:11:14;2.65;;;2.10;;
25637;SDS011;13496;51.040;13.680;2023-09-30T02:16:16;2.50;;;2.05;;
25637;SDS011;13496;51.040;13.680;2023-09-30T02:21:18;2.78;;;2.20;;
25637;SDS011;13496;51.040;13.680;2023-09-30T02:26:21;3.13;;;2.03;;
25637;SDS011;13496;51.040;13.680;2023-09-30T02:31:24;2.40;;;2.17;;
25637;SDS011;13496;51.040;13.680;2023-09-30T02:36:25;2.30;;;1.90;;
25637;SDS011;13496;51.040;13.680;2023-09-30T02:41:28;1.85;;;1.67;;
25637;SDS011;13496;51.040;13.680;2023-09-30T02:46:30;2.00;;;1.80;;
25637;SDS011;13496;51.040;13.680;2023-09-30T02:51:32;3.83;;;1.88;;
25637;SDS011;13496;51.040;13.680;2023-09-30T02:56:34;4.05;;;2.10;;
25637;SDS011;13496;51.040;13.680;2023-09-30T03:01:36;3.97;;;2.03;;
25637;SDS011;13496;51.040;13.680;2023-09-30T03:06:40;2.47;;;1.77;;
25637;SDS011;13496;51.040;13.680;2023-09-30T03:11:41;3.47;;;2.10;;
25637;SDS011;13496;51.040;13.680;2023-09-30T03:16:47;3.90;;;2.25;;
25637;SDS011;13496;51.040;13.680;2023-09-30T03:21:49;2.63;;;1.77;;
25637;SDS011;13496;51.040;13.680;2023-09-30T03:26:51;1.77;;;1.52;;
25637;SDS011;13496;51.040;13.680;2023-09-30T03:31:53;2.97;;;1.95;;
25637;SDS011;13496;51.040;13.680;2023-09-30T03:36:55;2.28;;;1.80;;
25637;SDS011;13496;51.040;13.680;2023-09-30T03:41:59;1.88;;;1.70;;
25637;SDS011;13496;51.040;13.680;2023-09-30T03:47:02;2.22;;;1.52;;
25637;SDS011;13496;51.040;13.680;2023-09-30T03:52:04;4.55;;;2.10;;
25637;SDS011;13496;51.040;13.680;2023-09-30T03:57:07;2.13;;;1.80;;
25637;SDS011;13496;51.040;13.680;2023-09-30T04:02:09;4.03;;;2.10;;
25637;SDS011;13496;51.040;13.680;2023-09-30T04:07:10;2.92;;;1.83;;
25637;SDS011;13496;51.040;13.680;2023-09-30T04:12:12;3.78;;;2.47;;
25637;SDS011;13496;51.040;13.680;2023-09-30T04:17:14;2.63;;;1.67;;
25637;SDS011;13496;51.040;13.680;2023-09-30T04:22:16;4.05;;;2.00;;
25637;SDS011;13496;51.040;13.680;2023-09-30T04:27:18;4.85;;;2.50;;
25637;SDS011;13496;51.040;13.680;2023-09-30T04:32:20;7.18;;;3.33;;
25637;SDS011;13496;51.040;13.680;2023-09-30T04:37:21;6.88;;;2.97;;
25637;SDS011;13496;51.040;13.680;2023-09-30T04:42:23;7.38;;;3.50;;
25637;SDS011;13496;51.040;13.680;2023-09-30T04:47:26;5.72;;;3.40;;
25637;SDS011;13496;51.040;13.680;2023-09-30T04:52:28;7.68;;;3.35;;
25637;SDS011;13496;51.040;13.680;2023-09-30T04:57:30;5.57;;;3.13;;
25637;SDS011;13496;51.040;13.680;2023-09-30T05:02:32;5.75;;;3.13;;
25637;SDS011;13496;51.040;13.680;2023-09-30T05:07:34;9.38;;;3.30;;
25637;SDS011;13496;51.040;13.680;2023-09-30T05:12:36;6.55;;;3.05;;
25637;SDS011;13496;51.040;13.680;2023-09-30T05:17:38;6.55;;;3.17;;
25637;SDS011;13496;51.040;13.680;2023-09-30T05:22:40;8.20;;;3.00;;
25637;SDS011;13496;51.040;13.680;2023-09-30T05:27:44;5.15;;;3.08;;
25637;SDS011;13496;51.040;13.680;2023-09-30T05:32:46;8.65;;;3.58;;
25637;SDS011;13496;51.040;13.680;2023-09-30T05:37:48;6.25;;;3.30;;
25637;SDS011;13496;51.040;13.680;2023-09-30T05:42:53;7.32;;;3.50;;
25637;SDS011;13496;51.040;13.680;2023-09-30T05:47:56;7.82;;;3.08;;
25637;SDS011;13496;51.040;13.680;2023-09-30T05:52:58;5.18;;;2.70;;
25637;SDS011;13496;51.040;13.680;2023-09-30T05:58:00;4.32;;;2.75;;
25637;SDS011;13496;51.040;13.680;2023-09-30T06:03:02;5.03;;;2.80;;
25637;SDS011;13496;51.040;13.680;2023-09-30T06:08:08;7.43;;;3.35;;
25637;SDS011;13496;51.040;13.680;2023-09-30T06:13:14;6.45;;;3.35;;
25637;SDS011;13496;51.040;13.680;2023-09-30T06:18:16;7.13;;;3.50;;
25637;SDS011;13496;51.040;13.680;2023-09-30T06:23:19;4.45;;;2.72;;
25637;SDS011;13496;51.040;13.680;2023-09-30T06:28:21;6.35;;;3.40;;
25637;SDS011;13496;51.040;13.680;2023-09-30T06:33:27;5.70;;;2.92;;
25637;SDS011;13496;51.040;13.680;2023-09-30T06:38:30;6.18;;;3.05;;
25637;SDS011;13496;51.040;13.680;2023-09-30T06:43:32;5.00;;;2.67;;
25637;SDS011;13496;51.040;13.680;2023-09-30T06:48:34;5.97;;;2.75;;
25637;SDS011;13496;51.040;13.680;2023-09-30T06:53:36;5.65;;;2.63;;
25637;SDS011;13496;51.040;13.680;2023-09-30T06:58:38;6.43;;;2.97;;
25637;SDS011;13496;51.040;13.680;2023-09-30T07:03:40;5.63;;;3.03;;
25637;SDS011;13496;51.040;13.680;2023-09-30T07:08:41;3.92;;;2.78;;
25637;SDS011;13496;51.040;13.680;2023-09-30T07:13:43;5.15;;;3.05;;
25637;SDS011;13496;51.040;13.680;2023-09-30T07:18:45;5.05;;;3.05;;
25637;SDS011;13496;51.040;13.680;2023-09-30T07:23:46;3.95;;;2.55;;
25637;SDS011;13496;51.040;13.680;2023-09-30T07:28:49;3.78;;;2.83;;
25637;SDS011;13496;51.040;13.680;2023-09-30T07:33:51;5.85;;;3.00;;
25637;SDS011;13496;51.040;13.680;2023-09-30T07:38:53;6.78;;;2.50;;
25637;SDS011;13496;51.040;13.680;2023-09-30T07:43:55;4.88;;;2.90;;
25637;SDS011;13496;51.040;13.680;2023-09-30T07:48:57;8.30;;;3.30;;
25637;SDS011;13496;51.040;13.680;2023-09-30T07:54:00;5.82;;;3.10;;
25637;SDS011;13496;51.040;13.680;2023-09-30T07:59:02;13.57;;;4.18;;
25637;SDS011;13496;51.040;13.680;2023-09-30T08:04:04;13.50;;;3.97;;
25637;SDS011;13496;51.040;13.680;2023-09-30T08:09:06;12.73;;;4.38;;
25637;SDS011;13496;51.040;13.680;2023-09-30T08:14:14;8.77;;;4.05;;
25637;SDS011;13496;51.040;13.680;2023-09-30T08:19:16;11.63;;;3.80;;
25637;SDS011;13496;51.040;13.680;2023-09-30T08:24:18;10.20;;;3.78;;
25637;SDS011;13496;51.040;13.680;2023-09-30T08:29:22;10.63;;;3.70;;
25637;SDS011;13496;51.040;13.680;2023-09-30T08:34:24;7.28;;;3.28;;
25637;SDS011;13496;51.040;13.680;2023-09-30T08:39:28;8.10;;;3.45;;
25637;SDS011;13496;51.040;13.680;2023-09-30T08:44:30;8.38;;;3.38;;
25637;SDS011;13496;51.040;13.680;2023-09-30T08:49:33;8.98;;;3.22;;
25637;SDS011;13496;51.040;13.680;2023-09-30T08:54:36;6.72;;;3.17;;
25637;SDS011;13496;51.040;13.680;2023-09-30T08:59:38;5.05;;;3.20;;
25637;SDS011;13496;51.040;13.680;2023-09-30T09:04:42;4.65;;;3.03;;
25637;SDS011;13496;51.040;13.680;2023-09-30T09:15:20;6.32;;;2.88;;
25637;SDS011;13496;51.040;13.680;2023-09-30T09:20:23;7.90;;;3.10;;
25637;SDS011;13496;51.040;13.680;2023-09-30T09:25:29;5.90;;;2.97;;
25637;SDS011;13496;51.040;13.680;2023-09-30T09:30:39;4.72;;;2.72;;
25637;SDS011;13496;51.040;13.680;2023-09-30T09:35:42;6.93;;;3.33;;
25637;SDS011;13496;51.040;13.680;2023-09-30T09:40:49;4.88;;;3.03;;
25637;SDS011;13496;51.040;13.680;2023-09-30T09:45:51;6.10;;;2.90;;
25637;SDS011;13496;51.040;13.680;2023-09-30T09:50:53;6.57;;;2.88;;
25637;SDS011;13496;51.040;13.680;2023-09-30T09:55:55;6.78;;;2.75;;
25637;SDS011;13496;51.040;13.680;2023-09-30T10:00:57;4.65;;;2.67;;
25637;SDS011;13496;51.040;13.680;2023-09-30T10:06:00;4.50;;;2.85;;
25637;SDS011;13496;51.040;13.680;2023-09-30T10:11:02;6.15;;;2.88;;
25637;SDS011;13496;51.040;13.680;2023-09-30T10:16:04;5.28;;;3.33;;
25637;SDS011;13496;51.040;13.680;2023-09-30T10:21:07;8.32;;;3.35;;
25637;SDS011;13496;51.040;13.680;2023-09-30T10:31:19;6.05;;;2.67;;
25637;SDS011;13496;51.040;13.680;2023-09-30T10:36:29;4.75;;;2.63;;
25637;SDS011;13496;51.040;13.680;2023-09-30T10:46:46;4.35;;;2.80;;
25637;SDS011;13496;51.040;13.680;2023-09-30T10:51:51;3.67;;;2.20;;
25637;SDS011;13496;51.040;13.680;2023-09-30T10:56:54;7.22;;;2.60;;
25637;SDS011;13496;51.040;13.680;2023-09-30T11:01:57;4.93;;;2.42;;
25637;SDS011;13496;51.040;13.680;2023-09-30T11:06:59;4.65;;;2.50;;
25637;SDS011;13496;51.040;13.680;2023-09-30T11:12:12;6.65;;;2.83;;
25637;SDS011;13496;51.040;13.680;2023-09-30T11:17:16;6.78;;;2.88;;
25637;SDS011;13496;51.040;13.680;2023-09-30T11:22:23;6.32;;;2.70;;
25637;SDS011;13496;51.040;13.680;2023-09-30T11:27:25;6.63;;;2.75;;
25637;SDS011;13496;51.040;13.680;2023-09-30T11:32:28;4.75;;;2.65;;
25637;SDS011;13496;51.040;13.680;2023-09-30T11:37:30;5.68;;;2.83;;
25637;SDS011;13496;51.040;13.680;2023-09-30T11:42:33;4.65;;;2.40;;
25637;SDS011;13496;51.040;13.680;2023-09-30T11:47:35;4.72;;;2.28;;
25637;SDS011;13496;51.040;13.680;2023-09-30T11:52:37;4.93;;;2.42;;
25637;SDS011;13496;51.040;13.680;2023-09-30T11:57:41;4.20;;;2.42;;
25637;SDS011;13496;51.040;13.680;2023-09-30T12:02:43;3.67;;;2.20;;
25637;SDS011;13496;51.040;13.680;2023-09-30T12:07:47;5.30;;;2.50;;
25637;SDS011;13496;51.040;13.680;2023-09-30T12:12:49;6.53;;;2.30;;
25637;SDS011;13496;51.040;13.680;2023-09-30T12:17:51;4.55;;;2.63;;
25637;SDS011;13496;51.040;13.680;2023-09-30T12:22:55;5.88;;;2.42;;
25637;SDS011;13496;51.040;13.680;2023-09-30T12:27:56;4.65;;;2.55;;
25637;SDS011;13496;51.040;13.680;2023-09-30T12:32:58;4.10;;;2.55;;
25637;SDS011;13496;51.040;13.680;2023-09-30T12:38:00;6.80;;;2.50;;
25637;SDS011;13496;51.040;13.680;2023-09-30T12:43:02;4.30;;;2.33;;
25637;SDS011;13496;51.040;13.680;2023-09-30T12:48:03;5.97;;;2.65;;
25637;SDS011;13496;51.040;13.680;2023-09-30T12:53:05;2.80;;;1.92;;
25637;SDS011;13496;51.040;13.680;2023-09-30T12:58:08;5.25;;;2.55;;
25637;SDS011;13496;51.040;13.680;2023-09-30T13:03:10;5.90;;;2.67;;
25637;SDS011;13496;51.040;13.680;2023-09-30T13:08:13;4.57;;;2.30;;
25637;SDS011;13496;51.040;13.680;2023-09-30T13:13:15;2.88;;;1.98;;
25637;SDS011;13496;51.040;13.680;2023-09-30T13:18:17;2.88;;;1.90;;
25637;SDS011;13496;51.040;13.680;2023-09-30T13:23:19;3.33;;;2.17;;
25637;SDS011;13496;51.040;13.680;2023-09-30T13:28:21;4.63;;;2.50;;
25637;SDS011;13496;51.040;13.680;2023-09-30T13:33:23;5.40;;;2.15;;
25637;SDS011;13496;51.040;13.680;2023-09-30T13:38:25;6.85;;;2.55;;
25637;SDS011;13496;51.040;13.680;2023-09-30T13:43:27;2.75;;;1.73;;
25637;SDS011;13496;51.040;13.680;2023-09-30T13:48:28;3.15;;;1.92;;
25637;SDS011;13496;51.040;13.680;2023-09-30T13:53:30;4.18;;;2.33;;
25637;SDS011;13496;51.040;13.680;2023-09-30T13:58:32;4.20;;;2.20;;
25637;SDS011;13496;51.040;13.680;2023-09-30T14:03:33;3.83;;;2.10;;
25637;SDS011;13496;51.040;13.680;2023-09-30T14:08:35;4.50;;;2.17;;
25637;SDS011;13496;51.040;13.680;2023-09-30T14:13:37;4.43;;;2.15;;
25637;SDS011;13496;51.040;13.680;2023-09-30T14:18:40;3.63;;;2.10;;
25637;SDS011;13496;51.040;13.680;2023-09-30T14:23:42;4.28;;;2.13;;
25637;SDS011;13496;51.040;13.680;2023-09-30T14:28:43;3.67;;;2.05;;
25637;SDS011;13496;51.040;13.680;2023-09-30T14:33:46;5.25;;;2.45;;
25637;SDS011;13496;51.040;13.680;2023-09-30T14:38:47;3.75;;;2.13;;
25637;SDS011;13496;51.040;13.680;2023-09-30T14:43:50;4.68;;;2.42;;
25637;SDS011;13496;51.040;13.680;2023-09-30T14:48:52;4.20;;;2.30;;
25637;SDS011;13496;51.040;13.680;2023-09-30T14:53:54;4.32;;;2.13;;
25637;SDS011;13496;51.040;13.680;2023-09-30T14:58:55;4.25;;;2.30;;
25637;SDS011;13496;51.040;13.680;2023-09-30T15:03:59;5.28;;;2.30;;
25637;SDS011;13496;51.040;13.680;2023-09-30T15:09:01;3.28;;;2.13;;
25637;SDS011;13496;51.040;13.680;2023-09-30T15:14:03;3.33;;;2.10;;
25637;SDS011;13496;51.040;13.680;2023-09-30T15:19:07;4.35;;;2.00;;
25637;SDS011;13496;51.040;13.680;2023-09-30T15:24:09;4.15;;;2.00;;
25637;SDS011;13496;51.040;13.680;2023-09-30T15:29:12;3.33;;;2.08;;
25637;SDS011;13496;51.040;13.680;2023-09-30T15:34:13;3.63;;;2.25;;
25637;SDS011;13496;51.040;13.680;2023-09-30T15:39:15;3.30;;;2.38;;
25637;SDS011;13496;51.040;13.680;2023-09-30T15:44:17;5.07;;;2.15;;
25637;SDS011;13496;51.040;13.680;2023-09-30T15:49:19;2.65;;;1.83;;
25637;SDS011;13496;51.040;13.680;2023-09-30T15:54:20;4.95;;;2.40;;
25637;SDS011;13496;51.040;13.680;2023-09-30T15:59:22;3.92;;;2.15;;
25637;SDS011;13496;51.040;13.680;2023-09-30T16:04:24;5.45;;;2.58;;
25637;SDS011;13496;51.040;13.680;2023-09-30T16:09:25;3.95;;;2.40;;
25637;SDS011;13496;51.040;13.680;2023-09-30T16:14:28;3.00;;;2.13;;
25637;SDS011;13496;51.040;13.680;2023-09-30T16:19:29;2.88;;;2.30;;
25637;SDS011;13496;51.040;13.680;2023-09-30T16:24:31;3.00;;;2.15;;
25637;SDS011;13496;51.040;13.680;2023-09-30T16:29:33;5.70;;;2.45;;
25637;SDS011;13496;51.040;13.680;2023-09-30T16:34:34;4.35;;;2.42;;
25637;SDS011;13496;51.040;13.680;2023-09-30T16:39:37;5.72;;;2.47;;
25637;SDS011;13496;51.040;13.680;2023-09-30T16:44:39;4.50;;;2.63;;
25637;SDS011;13496;51.040;13.680;2023-09-30T16:49:41;4.60;;;2.47;;
25637;SDS011;13496;51.040;13.680;2023-09-30T16:54:42;3.80;;;2.72;;
25637;SDS011;13496;51.040;13.680;2023-09-30T16:59:44;5.95;;;2.80;;
25637;SDS011;13496;51.040;13.680;2023-09-30T17:04:46;4.72;;;2.70;;
25637;SDS011;13496;51.040;13.680;2023-09-30T17:09:48;3.08;;;2.40;;
25637;SDS011;13496;51.040;13.680;2023-09-30T17:14:50;3.25;;;2.55;;
25637;SDS011;13496;51.040;13.680;2023-09-30T17:19:52;5.05;;;2.65;;
25637;SDS011;13496;51.040;13.680;2023-09-30T17:24:54;4.13;;;3.10;;
25637;SDS011;13496;51.040;13.680;2023-09-30T17:29:58;4.30;;;3.30;;
25637;SDS011;13496;51.040;13.680;2023-09-30T17:34:59;5.15;;;3.88;;
25637;SDS011;13496;51.040;13.680;2023-09-30T17:40:01;5.93;;;3.40;;
25637;SDS011;13496;51.040;13.680;2023-09-30T17:45:08;6.07;;;3.50;;
25637;SDS011;13496;51.040;13.680;2023-09-30T17:50:12;6.70;;;3.67;;
25637;SDS011;13496;51.040;13.680;2023-09-30T17:55:14;5.25;;;3.35;;
25637;SDS011;13496;51.040;13.680;2023-09-30T18:00:16;4.32;;;3.30;;
25637;SDS011;13496;51.040;13.680;2023-09-30T18:05:18;3.55;;;3.15;;
25637;SDS011;13496;51.040;13.680;2023-09-30T18:10:23;5.22;;;3.78;;
25637;SDS011;13496;51.040;13.680;2023-09-30T18:15:25;5.30;;;3.05;;
25637;SDS011;13496;51.040;13.680;2023-09-30T18:20:27;4.95;;;3.60;;
25637;SDS011;13496;51.040;13.680;2023-09-30T18:25:29;4.82;;;3.30;;
25637;SDS011;13496;51.040;13.680;2023-09-30T18:30:37;5.85;;;3.55;;
25637;SDS011;13496;51.040;13.680;2023-09-30T18:35:40;5.38;;;3.70;;
25637;SDS011;13496;51.040;13.680;2023-09-30T18:40:43;6.60;;;3.97;;
25637;SDS011;13496;51.040;13.680;2023-09-30T18:45:46;10.60;;;4.40;;
25637;SDS011;13496;51.040;13.680;2023-09-30T18:50:51;15.68;;;4.90;;
25637;SDS011;13496;51.040;13.680;2023-09-30T18:55:53;11.05;;;4.47;;
25637;SDS011;13496;51.040;13.680;2023-09-30T19:00:54;6.78;;;4.28;;
25637;SDS011;13496;51.040;13.680;2023-09-30T19:05:57;7.75;;;4.20;;
25637;SDS011;13496;51.040;13.680;2023-09-30T19:11:00;6.28;;;4.18;;
25637;SDS011;13496;51.040;13.680;2023-09-30T19:16:03;8.60;;;3.80;;
25637;SDS011;13496;51.040;13.680;2023-09-30T19:21:06;5.13;;;3.38;;
25637;SDS011;13496;51.040;13.680;2023-09-30T19:26:12;6.53;;;3.72;;
25637;SDS011;13496;51.040;13.680;2023-09-30T19:31:15;5.72;;;3.50;;
25637;SDS011;13496;51.040;13.680;2023-09-30T19:36:18;6.90;;;3.65;;
25637;SDS011;13496;51.040;13.680;2023-09-30T19:41:20;4.10;;;3.70;;
25637;SDS011;13496;51.040;13.680;2023-09-30T19:46:23;9.20;;;3.67;;
25637;SDS011;13496;51.040;13.680;2023-09-30T19:51:25;10.80;;;3.65;;
25637;SDS011;13496;51.040;13.680;2023-09-30T19:56:27;5.97;;;3.42;;
25637;SDS011;13496;51.040;13.680;2023-09-30T20:01:28;4.90;;;3.10;;
25637;SDS011;13496;51.040;13.680;2023-09-30T20:06:30;5.35;;;3.15;;
25637;SDS011;13496;51.040;13.680;2023-09-30T20:11:33;6.60;;;3.25;;
25637;SDS011;13496;51.040;13.680;2023-09-30T20:16:37;3.90;;;2.92;;
25637;SDS011;13496;51.040;13.680;2023-09-30T20:21:39;6.15;;;3.10;;
25637;SDS011;13496;51.040;13.680;2023-09-30T20:26:41;4.45;;;2.97;;
25637;SDS011;13496;51.040;13.680;2023-09-30T20:31:43;3.90;;;3.20;;
25637;SDS011;13496;51.040;13.680;2023-09-30T20:36:45;4.65;;;2.70;;
25637;SDS011;13496;51.040;13.680;2023-09-30T20:41:47;5.25;;;3.03;;
25637;SDS011;13496;51.040;13.680;2023-09-30T20:46:51;3.97;;;2.75;;
25637;SDS011;13496;51.040;13.680;2023-09-30T20:51:53;3.75;;;2.97;;
25637;SDS011;13496;51.040;13.680;2023-09-30T20:56:54;3.63;;;2.83;;
25637;SDS011;13496;51.040;13.680;2023-09-30T21:01:56;5.05;;;3.45;;
25637;SDS011;13496;51.040;13.680;2023-09-30T21:06:58;4.63;;;3.08;;
25637;SDS011;13496;51.040;13.680;2023-09-30T21:12:00;4.10;;;2.90;;
25637;SDS011;13496;51.040;13.680;2023-09-30T21:17:01;3.60;;;2.80;;
25637;SDS011;13496;51.040;13.680;2023-09-30T21:22:06;3.60;;;2.80;;
25637;SDS011;13496;51.040;13.680;2023-09-30T21:27:08;4.75;;;3.40;;
25637;SDS011;13496;51.040;13.680;2023-09-30T21:32:10;4.63;;;3.00;;
25637;SDS011;13496;51.040;13.680;2023-09-30T21:37:12;3.65;;;2.63;;
25637;SDS011;13496;51.040;13.680;2023-09-30T21:42:13;4.03;;;2.90;;
25637;SDS011;13496;51.040;13.680;2023-09-30T21:47:16;4.53;;;3.03;;
25637;SDS011;13496;51.040;13.680;2023-09-30T21:52:18;4.38;;;3.08;;
25637;SDS011;13496;51.040;13.680;2023-09-30T21:57:19;4.53;;;2.88;;
25637;SDS011;13496;51.040;13.680;2023-09-30T22:02:21;3.78;;;3.05;;
25637;SDS011;13496;51.040;13.680;2023-09-30T22:07:24;3.80;;;2.97;;
25637;SDS011;13496;51.040;13.680;2023-09-30T22:12:27;3.95;;;3.05;;
25637;SDS011;13496;51.040;13.680;2023-09-30T22:17:30;5.75;;;2.97;;
25637;SDS011;13496;51.040;13.680;2023-09-30T22:22:31;4.20;;;2.65;;
25637;SDS011;13496;51.040;13.680;2023-09-30T22:27:33;3.58;;;2.90;;
25637;SDS011;13496;51.040;13.680;2023-09-30T22:32:35;3.38;;;2.60;;
25637;SDS011;13496;51.040;13.680;2023-09-30T22:37:37;3.80;;;3.10;;
25637;SDS011;13496;51.040;13.680;2023-09-30T22:42:38;4.10;;;3.03;;
25637;SDS011;13496;51.040;13.680;2023-09-30T22:47:44;2.97;;;2.75;;
25637;SDS011;13496;51.040;13.680;2023-09-30T22:52:47;3.70;;;3.03;;
25637;SDS011;13496;51.040;13.680;2023-09-30T22:57:52;4.95;;;3.38;;
25637;SDS011;13496;51.040;13.680;2023-09-30T23:02:56;3.10;;;2.80;;
25637;SDS011;13496;51.040;13.680;2023-09-30T23:08:01;3.22;;;2.90;;
25637;SDS011;13496;51.040;13.680;2023-09-30T23:13:03;3.83;;;2.60;;
25637;SDS011;13496;51.040;13.680;2023-09-30T23:18:04;3.45;;;2.83;;
25637;SDS011;13496;51.040;13.680;2023-09-30T23:23:06;4.68;;;3.13;;
25637;SDS011;13496;51.040;13.680;2023-09-30T23:28:08;3.22;;;2.88;;
25637;SDS011;13496;51.040;13.680;2023-09-30T23:33:11;3.75;;;2.95;;
25637;SDS011;13496;51.040;13.680;2023-09-30T23:38:14;3.60;;;2.83;;
25637;SDS011;13496;51.040;13.680;2023-09-30T23:43:18;4.18;;;3.05;;
25637;SDS011;13496;51.040;13.680;2023-09-30T23:48:20;3.72;;;3.05;;
25637;SDS011;13496;51.040;13.680;2023-09-30T23:53:22;4.18;;;2.70;;
25637;SDS011;13496;51.040;13.680;2023-09-30T23:58:24;3.67;;;2.80;;
